Latest Weather Observations for Troughton Island

IDD60801

Issued at 7:31 am CST Tuesday 22 January 2019 (issued every 10 minutes, with the page automatically refreshed every 10 minutes)

About weather observations | Map of weather stations | Latest weather observations for NT | Other Formats
Station Details ID: 001007 Name: TROUGHTON ISLAND Lat: -13.75 Lon: 126.15 Height: 6.0 m
Data from the previous 72 hours. | See also: Recent months at Troughton Island
Date/Time
CST
Temp
°C
App
Temp
°C
Dew
Point
°C
Rel
Hum
%
Delta-T
°C
Wind Press
QNH
hPa
Press
MSL
hPa
Rain since
9am
mm
Dir  Spd
km/h
Gust
km/h
Spd
kts
Gust
kts
22/07:30am 26.5 29.0 24.5 89 1.4 SE 19 24 10 13 1005.3 1005.2 15.6
22/07:00am 26.7 29.5 24.9 90 1.3 SE 19 24 10 13 1005.2 1005.1 15.6
22/06:30am 27.0 29.7 24.8 88 1.5 SE 19 24 10 13 1005.2 1005.1 15.6
22/06:00am 26.5 29.3 24.9 91 1.1 SE 19 20 10 11 1004.9 1004.8 15.6
22/05:30am 26.3 29.8 24.9 92 1.0 SE 15 19 8 10 1005.0 1004.9 15.6
22/05:00am 25.6 29.4 24.7 95 0.6 SE 13 17 7 9 1004.8 1004.7 15.2
22/04:37am 25.2 25.9 24.3 95 0.6 ESE 28 39 15 21 1005.3 1005.2 14.8
22/04:30am 25.7 25.1 25.0 96 0.5 E 37 46 20 25 1005.7 1005.6 13.2
22/04:00am 25.5 23.1 24.8 96 0.5 E 46 61 25 33 1006.3 1006.2 7.0
22/03:41am 27.8 27.9 24.0 80 2.6 SE 30 59 16 32 1005.5 1005.4 0.0
22/03:30am 29.3 33.4 26.3 84 2.1 SE 17 22 9 12 1005.5 1005.4 0.0
22/03:00am 29.0 33.6 26.0 84 2.1 SE 13 15 7 8 1005.6 1005.5 0.0
22/02:30am 28.7 33.6 25.9 85 2.0 SSE 11 13 6 7 1005.7 1005.6 0.0
22/02:00am 28.7 33.8 26.1 86 1.8 SSE 11 13 6 7 1006.0 1005.9 0.0
22/01:30am 28.6 34.5 26.2 87 1.7 SSE 7 11 4 6 1006.3 1006.2 0.0
22/01:00am 28.9 35.0 26.5 87 1.7 SE 7 9 4 5 1006.5 1006.4 0.0
22/12:30am 29.1 35.4 26.5 86 1.9 SE 6 7 3 4 1006.7 1006.6 0.0
22/12:00am 29.1 35.4 26.5 86 1.9 ESE 6 9 3 5 1007.4 1007.3 0.0
 
Date/Time
CST
Temp
°C
App
Temp
°C
Dew
Point
°C
Rel
Hum
%
Delta-T
°C
Wind Press
QNH
hPa
Press
MSL
hPa
Rain since
9am
mm
Dir  Spd
km/h
Gust
km/h
Spd
kts
Gust
kts
21/11:30pm 29.3 35.5 26.7 86 1.9 SE 7 9 4 5 1007.8 1007.7 0.0
21/11:00pm 29.4 35.1 26.4 84 2.1 E 9 11 5 6 1007.7 1007.6 0.0
21/10:30pm 29.4 35.4 26.0 82 2.4 ESE 6 7 3 4 1007.4 1007.3 0.0
21/10:00pm 29.4 35.2 26.0 82 2.4 SE 7 9 4 5 1007.2 1007.1 0.0
21/09:30pm 29.3 35.0 25.9 82 2.4 ESE 7 9 4 5 1007.0 1006.9 0.0
21/09:00pm 29.4 34.9 26.2 83 2.3 ESE 9 13 5 7 1006.9 1006.8 0.0
21/08:30pm 29.5 34.3 26.3 83 2.3 E 13 15 7 8 1006.5 1006.4 0.0
21/08:00pm 29.5 34.8 26.5 84 2.1 E 11 15 6 8 1005.9 1005.8 0.0
21/07:30pm 29.9 35.2 26.5 82 2.4 E 11 13 6 7 1005.3 1005.2 0.0
21/07:00pm 29.9 35.0 26.1 80 2.7 E 11 13 6 7 1004.8 1004.7 0.0
21/06:30pm 30.5 35.9 26.0 77 3.2 NE 9 13 5 7 1004.6 1004.5 0.0
21/06:00pm 30.5 35.5 26.0 77 3.2 E 11 13 6 7 1004.5 1004.4 0.0
21/05:30pm 30.8 35.9 26.1 76 3.4 E 11 15 6 8 1004.8 1004.7 0.0
21/05:00pm 30.7 35.7 26.0 76 3.3 ESE 11 15 6 8 1005.1 1005.0 0.0
21/04:30pm 30.9 36.0 26.2 76 3.4 ESE 11 15 6 8 1005.1 1005.0 0.0
21/04:00pm 30.3 34.8 25.8 77 3.2 E 13 17 7 9 1005.5 1005.4 0.0
21/03:30pm 30.1 34.5 25.6 77 3.2 E 13 17 7 9 1005.5 1005.4 0.0
21/03:00pm 30.2 34.0 25.3 75 3.5 E 15 19 8 10 1005.2 1005.1 0.0
21/02:30pm 30.5 33.7 25.6 75 3.5 E 19 22 10 12 1005.3 1005.2 0.0
21/02:00pm 30.2 32.9 25.0 73 3.7 E 20 22 11 12 1005.4 1005.3 0.0
21/01:30pm 30.2 32.8 24.6 72 3.9 ENE 19 22 10 12 1005.9 1005.8 0.0
21/01:00pm 30.0 32.3 24.4 72 3.9 E 20 26 11 14 1006.3 1006.2 0.0
21/12:30pm 29.9 32.6 25.0 75 3.4 E 20 26 11 14 1006.6 1006.5 0.0
21/12:00pm 29.5 31.4 25.0 77 3.2 E 24 28 13 15 1006.9 1006.8 0.0
21/11:30am 29.7 31.1 24.8 75 3.4 ESE 26 32 14 17 1007.1 1007.0 0.0
21/11:00am 29.2 30.9 24.1 74 3.5 SE 22 28 12 15 1007.0 1006.9 0.0
21/10:30am 28.3 29.6 24.1 78 2.9 SSE 24 30 13 16 1007.3 1007.2 0.0
21/10:00am 27.7 27.1 23.7 79 2.7 SSE 33 43 18 23 1007.2 1007.1 0.0
21/09:30am 27.4 26.5 23.8 81 2.5 SSE 35 44 19 24 1007.6 1007.5 0.0
21/09:00am 27.0 26.0 23.7 82 2.3 SSE 35 43 19 23 1007.5 1007.4 0.0
21/08:30am 28.1 27.5 23.7 77 3.0 SSE 33 46 18 25 1007.6 1007.5 0.0
21/08:12am 28.6 29.8 23.9 75 3.2 SSE 24 46 13 25 1007.8 1007.7 0.0
21/08:00am 29.7 34.9 26.9 85 2.0 SSE 13 15 7 8 1007.4 1007.3 0.0
21/07:30am 29.4 35.7 27.4 89 1.4 S 9 13 5 7 1007.1 1007.0 0.0
21/07:00am 29.3 35.0 27.1 88 1.6 S 11 13 6 7 1006.8 1006.7 0.0
21/06:30am 29.3 34.7 27.1 88 1.6 SSW 13 15 7 8 1006.3 1006.2 0.0
21/06:00am 29.4 34.5 27.2 88 1.6 SSW 15 20 8 11 1006.1 1006.0 0.0
21/05:30am 29.2 33.7 27.0 88 1.6 SSW 17 19 9 10 1005.5 1005.4 0.0
21/05:00am 29.3 33.7 27.3 89 1.4 SW 19 20 10 11 1005.3 1005.2 0.0
21/04:30am 29.3 33.5 27.3 89 1.4 WSW 20 24 11 13 1005.3 1005.2 0.0
21/04:00am 29.4 33.7 27.2 88 1.6 WSW 19 20 10 11 1005.6 1005.5 0.0
21/03:30am 29.4 33.7 27.2 88 1.6 WSW 19 20 10 11 1005.7 1005.6 0.0
21/03:00am 29.4 33.7 27.2 88 1.6 WSW 19 20 10 11 1005.9 1005.8 0.0
21/02:30am 29.3 33.6 26.7 86 1.9 WSW 17 20 9 11 1006.3 1006.2 0.0
21/02:00am 29.4 33.9 27.0 87 1.7 WSW 17 19 9 10 1006.4 1006.3 0.0
21/01:30am 29.2 34.1 27.0 88 1.6 W 15 19 8 10 1006.7 1006.6 0.0
21/01:00am 29.2 34.1 27.0 88 1.6 WNW 15 17 8 9 1007.2 1007.1 0.0
21/12:30am 29.3 33.6 25.5 80 2.7 NW 13 17 7 9 1007.7 1007.6 0.0
21/12:00am 29.4 33.4 25.6 80 2.7 WNW 15 17 8 9 1008.1 1008.0 0.0
 
Date/Time
CST
Temp
°C
App
Temp
°C
Dew
Point
°C
Rel
Hum
%
Delta-T
°C
Wind Press
QNH
hPa
Press
MSL
hPa
Rain since
9am
mm
Dir  Spd
km/h
Gust
km/h
Spd
kts
Gust
kts
20/11:30pm 29.4 33.8 25.6 80 2.7 NW 13 15 7 8 1008.5 1008.4 0.0
20/11:00pm 29.4 33.8 25.6 80 2.7 NW 13 15 7 8 1008.4 1008.3 0.0
20/10:30pm 29.4 33.7 24.9 77 3.2 NW 11 13 6 7 1008.4 1008.3 0.0
20/10:00pm 29.5 33.9 25.0 77 3.2 NNW 11 13 6 7 1008.3 1008.2 0.0
20/09:30pm 29.7 34.8 25.0 76 3.3 E 7 11 4 6 1008.2 1008.1 0.0
20/09:00pm 29.7 33.6 24.8 75 3.4 N 13 15 7 8 1007.8 1007.7 0.0
20/08:30pm 29.9 34.1 24.8 74 3.6 WNW 11 13 6 7 1007.7 1007.6 0.0
20/08:00pm 29.9 33.8 24.8 74 3.6 NW 13 17 7 9 1007.1 1007.0 0.0
20/07:30pm 30.3 33.8 24.9 73 3.8 WNW 15 17 8 9 1006.4 1006.3 0.0
20/07:00pm 30.8 33.7 24.4 68 4.5 W 17 19 9 10 1006.1 1006.0 0.0
20/06:30pm 31.4 35.6 25.3 70 4.3 NW 13 17 7 9 1005.5 1005.4 0.0
20/06:00pm 31.7 35.3 24.3 65 5.2 NW 13 17 7 9 1005.2 1005.1 0.0
20/05:30pm 32.1 34.9 24.9 65 5.1 NNW 19 22 10 12 1004.9 1004.8 0.0
20/05:00pm 32.3 34.4 23.8 61 5.9 NNW 19 20 10 11 1004.7 1004.6 0.0
20/04:30pm 32.9 35.2 23.5 57 6.5 NW 17 19 9 10 1004.9 1004.8 0.0
20/04:00pm 33.2 36.4 24.4 60 6.2 NW 15 19 8 10 1005.2 1005.1 0.0
20/03:30pm 33.4 36.6 24.3 59 6.4 WNW 15 17 8 9 1005.8 1005.7 0.0
20/03:00pm 32.7 35.7 23.3 57 6.5 WSW 13 15 7 8 1006.0 1005.9 0.0
20/02:30pm 32.9 37.8 25.9 66 5.0 WSW 11 15 6 8 1006.4 1006.3 0.0
20/02:00pm 32.4 37.0 26.0 69 4.6 WSW 13 15 7 8 1006.6 1006.5 0.0
20/01:30pm 32.4 37.9 26.2 70 4.4 SSW 9 11 5 6 1007.2 1007.1 0.0
20/01:00pm 32.5 38.0 26.1 69 4.6 SSW 9 11 5 6 1007.8 1007.7 0.0
20/12:30pm 32.4 37.9 26.2 70 4.4 S 9 11 5 6 1007.9 1007.8 0.0
20/12:00pm 32.3 37.4 25.6 67 4.8 S 9 13 5 7 1008.1 1008.0 0.0
20/11:30am 32.0 36.7 25.6 69 4.6 SSE 11 15 6 8 1008.5 1008.4 0.0
20/11:00am 31.9 37.0 25.5 69 4.5 SSE 9 15 5 8 1008.2 1008.1 0.0
20/10:30am 31.5 35.7 25.4 70 4.3 SSE 13 15 7 8 1008.4 1008.3 0.0
20/10:00am 31.8 36.5 26.1 72 4.1 SSE 13 15 7 8 1008.5 1008.4 0.0
20/09:30am 30.9 35.6 25.5 73 3.8 SSE 11 15 6 8 1008.6 1008.5 0.0
20/09:00am 30.5 35.4 25.3 74 3.7 S 9 11 5 6 1008.5 1008.4 0.0
20/08:30am 30.5 35.8 25.8 76 3.3 S 9 11 5 6 1008.1 1008.0 0.0
20/08:00am 30.0 35.1 25.5 77 3.2 S 9 11 5 6 1007.9 1007.8 0.0
20/07:30am 29.5 35.1 26.3 83 2.3 SSE 9 11 5 6 1007.9 1007.8 0.0
20/07:00am 28.7 34.2 26.1 86 1.8 SSE 9 11 5 6 1007.5 1007.4 0.0
20/06:30am 28.6 33.5 25.8 85 2.0 SSE 11 13 6 7 1007.3 1007.2 0.0
20/06:00am 28.7 33.5 25.7 84 2.1 SSE 11 13 6 7 1007.0 1006.9 0.0
20/05:30am 28.8 33.0 26.0 85 2.0 S 15 19 8 10 1006.5 1006.4 0.0
20/05:00am 28.9 33.2 26.1 85 2.0 S 15 17 8 9 1006.4 1006.3 0.0
20/04:30am 28.8 33.3 25.8 84 2.1 S 13 15 7 8 1006.6 1006.5 0.0
20/04:00am 29.0 33.1 25.8 83 2.3 SSW 15 17 8 9 1006.6 1006.5 0.0
20/03:30am 28.8 33.3 25.8 84 2.1 SSW 13 15 7 8 1006.7 1006.6 0.0
20/03:00am 28.7 34.3 25.7 84 2.1 SSE 7 9 4 5 1006.9 1006.8 0.0
20/02:30am 28.7 34.3 25.7 84 2.1 SSE 7 9 4 5 1007.1 1007.0 0.0
20/02:00am 28.8 33.9 25.6 83 2.3 S 9 11 5 6 1007.4 1007.3 0.0
20/01:30am 29.0 34.0 25.4 81 2.5 S 9 11 5 6 1008.0 1007.9 0.0
20/01:00am 29.0 34.0 25.4 81 2.5 SW 9 13 5 7 1008.6 1008.5 0.0
20/12:30am 29.1 33.3 25.3 80 2.7 WSW 13 15 7 8 1009.2 1009.1 0.0
20/12:00am 29.1 33.9 25.1 79 2.8 SW 9 13 5 7 1009.6 1009.5 0.0
 
Date/Time
CST
Temp
°C
App
Temp
°C
Dew
Point
°C
Rel
Hum
%
Delta-T
°C
Wind Press
QNH
hPa
Press
MSL
hPa
Rain since
9am
mm
Dir  Spd
km/h
Gust
km/h
Spd
kts
Gust
kts
19/11:30pm 29.1 33.9 25.1 79 2.8 SW 9 13 5 7 1009.7 1009.6 0.0
19/11:00pm 29.1 34.0 25.3 80 2.7 SW 9 13 5 7 1009.6 1009.5 0.0
19/10:30pm 29.0 33.2 24.8 78 2.9 NW 11 13 6 7 1009.4 1009.3 0.0
19/10:00pm 29.4 34.0 25.4 79 2.8 E 11 13 6 7 1009.0 1008.9 0.0
19/09:30pm 29.5 34.6 25.5 79 2.8 ESE 9 13 5 7 1009.1 1009.0 0.0
19/09:00pm 29.2 34.3 25.6 81 2.5 E 9 13 5 7 1008.6 1008.5 0.0
19/08:30pm 29.4 34.7 25.8 81 2.6 E 9 13 5 7 1008.1 1008.0 0.0
19/08:00pm 29.6 34.1 25.8 80 2.7 N 13 17 7 9 1007.2 1007.1 0.0
19/07:30pm 29.9 34.1 25.9 79 2.8 N 15 19 8 10 1006.6 1006.5 0.0
19/07:00pm 30.2 34.3 25.7 77 3.2 NNE 15 20 8 11 1006.1 1006.0 0.0
19/06:30pm 30.1 33.7 25.6 77 3.2 N 17 20 9 11 1005.7 1005.6 0.0
19/06:00pm 30.7 35.3 26.6 79 2.9 NNE 15 19 8 10 1005.3 1005.2 0.0
19/05:30pm 30.4 34.7 26.1 78 3.1 NNE 15 19 8 10 1005.2 1005.1 0.0
19/05:00pm 30.7 33.8 24.8 71 4.1 NE 17 20 9 11 1005.4 1005.3 0.0
19/04:30pm 30.8 34.3 24.2 68 4.6 ENE 13 19 7 10 1005.7 1005.6 0.0
19/04:00pm 31.4 36.1 25.0 69 4.5 ESE 9 11 5 6 1006.6 1006.5 0.0
19/03:30pm 31.9 36.3 25.0 67 4.9 ESE 11 17 6 9 1007.0 1006.9 0.0
19/03:00pm 31.9 36.1 24.7 65 5.1 ESE 11 13 6 7 1007.4 1007.3 0.0
19/02:30pm 32.0 36.9 25.3 67 4.8 ESE 9 13 5 7 1007.7 1007.6 0.0
19/02:00pm 31.7 36.5 25.1 68 4.7 ESE 9 13 5 7 1008.0 1007.9 0.0
19/01:30pm 31.8 37.3 26.1 72 4.1 SE 9 13 5 7 1008.1 1008.0 0.0
19/01:00pm 31.1 36.7 25.7 73 3.8 SE 7 9 4 5 1008.4 1008.3 0.0
19/12:30pm 30.6 36.2 25.7 75 3.5 SE 7 9 4 5 1008.6 1008.5 0.0
19/12:00pm 30.4 36.0 25.5 75 3.5 SE 6 9 3 5 1008.7 1008.6 0.0
19/11:30am 30.5 36.1 25.8 76 3.3 SE 7 11 4 6 1008.8 1008.7 0.0
19/11:00am 30.6 36.2 25.7 75 3.5 SE 7 11 4 6 1008.9 1008.8 0.0
19/10:30am 30.8 36.4 25.4 73 3.8 SE 6 9 3 5 1008.6 1008.5 0.0
19/10:00am 30.1 35.2 24.9 73 3.6 E 7 9 4 5 1008.6 1008.5 0.0
19/09:30am 30.3 34.3 25.1 73 3.7 ESE 13 15 7 8 1009.1 1009.0 0.0

Other Formats:

Comma delimited format used in spreadsheet applications
http://www.bom.gov.au/fwo/IDD60801/IDD60801.94102.axf

JavaScript Object Notation format (JSON) in row-major order
http://www.bom.gov.au/fwo/IDD60801/IDD60801.94102.json